Time;durP1;ratioP1;P1;durP2;ratioP2;P2;SDS_P1;SDS_P2;PMS_P1;PMS_P2;Temp;Humidity;BMP_temperature;BMP_pressure;BME280_temperature;BME280_humidity;BME280_pressure;Samples;Min_cycle;Max_cycle;Signal;HPM_P1;HPM_P2
2021/12/07 00:02:06;;;;;;;24.63;21.52;;;3.00;99.90;;;;;;5111063;27;20094;-86
2021/12/07 00:04:33;;;;;;;14.23;7.40;;;3.00;99.90;;;;;;5114327;27;20395;-87
2021/12/07 00:06:59;;;;;;;14.63;7.63;;;3.00;99.90;;;;;;5131522;27;20050;-86
2021/12/07 00:09:25;;;;;;;15.18;7.35;;;2.90;99.90;;;;;;5118646;27;20091;-87
2021/12/07 00:11:51;;;;;;;16.83;8.02;;;2.90;99.90;;;;;;5134718;27;20511;-88
2021/12/07 00:14:25;;;;;;;17.70;7.97;;;2.80;99.90;;;;;;5118844;27;20125;-87
2021/12/07 00:16:54;;;;;;;16.88;8.35;;;2.80;99.90;;;;;;5117551;27;20078;-87
2021/12/07 00:19:20;;;;;;;14.88;7.43;;;2.80;99.90;;;;;;5135328;27;20094;-87
2021/12/07 00:21:46;;;;;;;16.10;7.25;;;2.70;99.90;;;;;;5117715;27;20046;-86
2021/12/07 00:24:13;;;;;;;13.93;7.50;;;2.70;99.90;;;;;;5135271;27;20039;-87
2021/12/07 00:26:40;;;;;;;17.73;8.05;;;2.70;99.90;;;;;;5134874;27;20405;-87
2021/12/07 00:29:07;;;;;;;15.50;7.75;;;2.70;99.90;;;;;;5135529;27;20043;-87
2021/12/07 00:31:40;;;;;;;19.17;8.20;;;2.60;99.90;;;;;;5117444;27;20177;-87
2021/12/07 00:36:37;;;;;;;17.17;7.53;;;2.60;99.90;;;;;;5135358;27;20050;-87
2021/12/07 00:39:05;;;;;;;18.58;8.38;;;2.50;99.90;;;;;;5134368;27;20049;-87
2021/12/07 00:41:31;;;;;;;16.25;8.57;;;2.50;99.90;;;;;;5134851;27;20050;-87
2021/12/07 00:43:57;;;;;;;13.57;6.68;;;2.50;99.90;;;;;;5134261;27;20118;-87
2021/12/07 00:46:25;;;;;;;16.45;8.05;;;2.40;99.90;;;;;;5134235;27;20034;-88
2021/12/07 00:48:51;;;;;;;17.15;7.45;;;2.40;99.90;;;;;;5133382;27;20084;-88
2021/12/07 00:51:16;;;;;;;13.40;6.63;;;2.40;99.90;;;;;;5134929;27;20046;-88
2021/12/07 00:53:42;;;;;;;14.25;6.75;;;2.40;99.90;;;;;;5113269;27;20042;-88
2021/12/07 00:56:08;;;;;;;17.75;8.60;;;2.30;99.90;;;;;;5108633;27;20414;-87
2021/12/07 00:58:35;;;;;;;15.68;7.43;;;2.30;99.90;;;;;;5138214;27;20034;-88
2021/12/07 01:01:06;;;;;;;16.95;8.10;;;2.30;99.90;;;;;;5134855;27;20046;-88
2021/12/07 01:03:32;;;;;;;17.00;7.88;;;2.30;99.90;;;;;;5134725;27;20039;-88
2021/12/07 01:06:18;;;;;;;14.95;7.25;;;2.20;99.90;;;;;;5117146;27;20066;-88
2021/12/07 01:25:40;;;;;;;14.00;7.13;;;2.00;99.90;;;;;;5071097;28;20520;-88
2021/12/07 01:28:34;;;;;;;13.63;6.50;;;2.00;99.90;;;;;;5088573;28;20048;-88
2021/12/07 01:39:36;;;;;;;13.93;7.22;;;2.00;99.90;;;;;;5071057;28;20048;-88
2021/12/07 01:46:59;;;;;;;14.45;6.22;;;1.90;99.90;;;;;;5070336;28;20047;-88
2021/12/07 01:57:54;;;;;;;10.23;4.80;;;1.90;99.90;;;;;;5098959;27;20130;-88
2021/12/07 02:00:23;;;;;;;14.10;6.88;;;1.80;99.90;;;;;;5116995;27;20048;-88
2021/12/07 02:02:49;;;;;;;13.93;6.28;;;1.80;99.90;;;;;;5126266;27;20035;-89
2021/12/07 02:05:14;;;;;;;12.30;6.03;;;1.70;99.90;;;;;;5124226;27;20531;-88
2021/12/07 02:07:40;;;;;;;15.73;6.90;;;1.70;99.90;;;;;;5130970;27;20031;-88
2021/12/07 02:10:12;;;;;;;14.35;5.85;;;1.80;99.90;;;;;;5120765;27;20463;-89
2021/12/07 02:12:46;;;;;;;10.50;5.30;;;1.80;99.90;;;;;;5133512;27;20057;-88
2021/12/07 02:15:15;;;;;;;14.10;6.13;;;1.80;99.90;;;;;;5116379;27;20149;-88
2021/12/07 02:17:42;;;;;;;13.32;4.70;;;1.70;99.90;;;;;;5115702;27;20039;-87
2021/12/07 02:20:09;;;;;;;14.88;6.07;;;1.70;99.90;;;;;;5116070;27;20042;-87
2021/12/07 02:22:36;;;;;;;12.45;5.90;;;1.70;99.90;;;;;;5133011;27;20043;-87
2021/12/07 02:25:03;;;;;;;14.73;7.05;;;1.70;99.90;;;;;;5132880;27;20460;-88
2021/12/07 02:27:29;;;;;;;13.77;6.80;;;1.70;99.90;;;;;;5116006;27;20038;-87
2021/12/07 02:29:55;;;;;;;11.88;6.20;;;1.70;99.90;;;;;;5131271;27;20539;-87
2021/12/07 02:32:20;;;;;;;11.95;5.22;;;1.70;99.90;;;;;;5133077;27;20043;-87
2021/12/07 02:34:55;;;;;;;14.43;6.78;;;1.70;99.90;;;;;;5114331;27;20479;-87
2021/12/07 02:37:22;;;;;;;16.13;7.05;;;1.70;99.90;;;;;;5115587;27;20035;-87
2021/12/07 02:39:49;;;;;;;13.23;5.75;;;1.70;99.90;;;;;;5103434;27;20042;-87
2021/12/07 02:42:15;;;;;;;16.48;7.30;;;1.80;99.90;;;;;;5132743;27;20092;-87
2021/12/07 02:44:41;;;;;;;12.60;6.25;;;1.80;99.90;;;;;;5113799;27;20479;-87
2021/12/07 02:47:07;;;;;;;15.02;6.55;;;1.80;99.90;;;;;;5133013;27;20659;-87
2021/12/07 02:49:32;;;;;;;16.85;7.72;;;1.80;99.90;;;;;;5115336;27;20083;-87
2021/12/07 02:51:59;;;;;;;14.00;6.68;;;1.80;99.90;;;;;;5132015;27;20043;-87
2021/12/07 02:54:25;;;;;;;13.45;6.95;;;1.80;99.90;;;;;;5132204;27;20043;-87
2021/12/07 02:56:51;;;;;;;14.52;7.50;;;1.80;99.90;;;;;;5131199;27;20058;-88
2021/12/07 02:59:18;;;;;;;14.23;6.68;;;1.80;99.90;;;;;;5132560;27;20042;-87
2021/12/07 03:01:51;;;;;;;15.73;7.25;;;1.80;99.90;;;;;;5114953;27;20030;-87
2021/12/07 03:04:22;;;;;;;14.95;6.80;;;1.80;99.90;;;;;;5117237;27;20046;-88
2021/12/07 03:07:04;;;;;;;16.48;6.53;;;1.80;99.90;;;;;;5130404;27;20047;-87
2021/12/07 03:28:35;;;;;;;14.90;6.55;;;1.80;99.90;;;;;;5132050;27;20060;-88
2021/12/07 03:31:03;;;;;;;15.27;6.50;;;1.90;99.90;;;;;;5115243;27;20047;-87
2021/12/07 03:33:28;;;;;;;16.42;7.30;;;1.90;99.90;;;;;;5132601;27;20078;-88
2021/12/07 03:35:54;;;;;;;15.27;6.93;;;1.80;99.90;;;;;;5125660;28;20135;-87
2021/12/07 03:38:19;;;;;;;15.48;6.80;;;1.80;99.90;;;;;;5122126;27;20042;-88
2021/12/07 03:40:45;;;;;;;18.17;7.32;;;1.70;99.90;;;;;;5114560;27;20054;-87
2021/12/07 03:43:12;;;;;;;16.98;7.95;;;1.70;99.90;;;;;;5119125;27;20048;-87
2021/12/07 03:45:38;;;;;;;14.23;6.68;;;1.70;99.90;;;;;;5118800;27;20363;-87
2021/12/07 03:48:08;;;;;;;13.73;6.75;;;1.70;99.90;;;;;;5119173;27;20054;-87
2021/12/07 03:50:35;;;;;;;14.80;6.85;;;1.70;99.90;;;;;;5135886;27;20050;-87
2021/12/07 03:53:01;;;;;;;16.25;7.57;;;1.60;99.90;;;;;;5135796;27;20047;-87
2021/12/07 03:55:27;;;;;;;12.52;6.15;;;1.60;99.90;;;;;;5109346;27;20399;-88
2021/12/07 03:57:52;;;;;;;13.55;6.03;;;1.60;99.90;;;;;;5107860;27;20042;-88
2021/12/07 04:00:22;;;;;;;12.57;5.30;;;1.50;99.90;;;;;;5136136;27;20038;-87
2021/12/07 04:02:51;;;;;;;17.20;6.95;;;1.50;99.90;;;;;;5118350;27;20039;-87
2021/12/07 04:05:18;;;;;;;14.80;6.93;;;1.50;99.90;;;;;;5118320;27;20046;-88
2021/12/07 04:07:44;;;;;;;13.38;5.97;;;1.50;99.90;;;;;;5118047;27;20388;-87
2021/12/07 04:10:13;;;;;;;16.33;6.78;;;1.50;99.90;;;;;;5118856;27;20103;-87
2021/12/07 04:12:39;;;;;;;14.63;6.05;;;1.50;99.90;;;;;;5117470;27;20038;-87
2021/12/07 04:15:07;;;;;;;10.93;5.05;;;1.50;99.90;;;;;;5118115;27;20053;-87
2021/12/07 04:17:34;;;;;;;13.65;5.65;;;1.50;99.90;;;;;;5131948;27;20230;-87
2021/12/07 04:20:00;;;;;;;14.18;5.45;;;1.50;99.90;;;;;;5118488;27;20047;-87
2021/12/07 04:22:26;;;;;;;14.15;5.68;;;1.40;99.90;;;;;;5134731;27;20501;-88
2021/12/07 04:24:51;;;;;;;14.60;5.95;;;1.40;99.90;;;;;;5134500;27;20112;-87
2021/12/07 04:27:17;;;;;;;16.17;7.03;;;1.40;99.90;;;;;;5135068;27;20039;-87
2021/12/07 04:29:43;;;;;;;13.30;6.57;;;1.40;99.90;;;;;;5117635;27;20034;-87
2021/12/07 04:32:09;;;;;;;13.82;6.28;;;1.50;99.90;;;;;;5135340;27;20050;-87
2021/12/07 04:34:34;;;;;;;17.60;6.25;;;1.50;99.90;;;;;;5116559;27;20448;-88
2021/12/07 04:37:00;;;;;;;15.00;6.35;;;1.40;99.90;;;;;;5117979;27;20380;-87
2021/12/07 04:39:26;;;;;;;11.73;4.88;;;1.40;99.90;;;;;;5134909;27;20486;-87
2021/12/07 04:41:52;;;;;;;13.90;5.78;;;1.40;99.90;;;;;;5117219;27;20042;-87
2021/12/07 04:44:21;;;;;;;13.57;5.00;;;1.40;99.90;;;;;;5135218;27;20039;-87
2021/12/07 04:47:05;;;;;;;12.85;5.68;;;1.40;99.90;;;;;;5134217;27;20050;-87
2021/12/07 04:50:17;;;;;;;14.88;5.82;;;1.40;99.90;;;;;;5131319;27;20049;-88
2021/12/07 04:57:48;;;;;;;11.95;5.65;;;1.40;99.90;;;;;;5122891;27;20046;-86
2021/12/07 05:00:18;;;;;;;13.48;5.50;;;1.30;99.90;;;;;;5134744;27;20077;-87
2021/12/07 05:02:50;;;;;;;12.60;5.05;;;1.30;99.90;;;;;;5133812;27;20455;-87
2021/12/07 05:05:17;;;;;;;11.82;5.30;;;1.30;99.90;;;;;;5114201;27;20080;-87
2021/12/07 05:07:48;;;;;;;12.30;5.45;;;1.30;99.90;;;;;;5110889;27;20039;-87
2021/12/07 05:10:22;;;;;;;12.52;5.32;;;1.20;99.90;;;;;;5130694;27;20050;-87
2021/12/07 05:34:36;;;;;;;13.43;5.60;;;1.20;99.90;;;;;;5134303;27;20090;-87
2021/12/07 05:39:52;;;;;;;11.02;4.32;;;1.30;99.90;;;;;;5133022;27;20087;-87
2021/12/07 05:42:17;;;;;;;10.30;4.28;;;1.30;99.90;;;;;;5116734;27;20034;-88
2021/12/07 05:44:43;;;;;;;11.73;4.85;;;1.30;99.90;;;;;;5115935;27;20035;-87
2021/12/07 05:47:09;;;;;;;12.13;4.53;;;1.30;99.90;;;;;;5117054;27;20050;-87
2021/12/07 05:49:35;;;;;;;12.65;5.40;;;1.30;99.90;;;;;;5116594;27;20041;-87
2021/12/07 05:52:01;;;;;;;14.20;4.82;;;1.30;99.90;;;;;;5116324;27;20085;-87
2021/12/07 05:54:27;;;;;;;14.45;5.45;;;1.30;99.90;;;;;;5133444;27;20126;-87
2021/12/07 05:56:52;;;;;;;14.75;4.97;;;1.20;99.90;;;;;;5133066;27;20121;-87
2021/12/07 05:59:18;;;;;;;14.15;4.70;;;1.20;99.90;;;;;;5116340;27;20046;-87
2021/12/07 06:01:44;;;;;;;12.50;5.40;;;1.30;99.90;;;;;;5115964;27;20054;-87
2021/12/07 06:04:09;;;;;;;15.05;5.90;;;1.30;99.90;;;;;;5132974;27;20083;-86
2021/12/07 06:06:35;;;;;;;13.93;5.22;;;1.30;99.90;;;;;;5127438;27;20542;-87
2021/12/07 06:09:01;;;;;;;14.23;5.70;;;1.30;99.90;;;;;;5128435;27;20043;-88
2021/12/07 06:11:26;;;;;;;12.43;5.28;;;1.30;99.90;;;;;;5133249;27;20034;-88
2021/12/07 06:13:52;;;;;;;10.30;4.90;;;1.30;99.90;;;;;;5112587;27;20151;-88
2021/12/07 06:16:18;;;;;;;11.55;4.80;;;1.40;99.90;;;;;;5133276;27;20065;-89
2021/12/07 06:18:44;;;;;;;13.32;5.03;;;1.50;99.90;;;;;;5109410;27;20070;-89
2021/12/07 06:21:11;;;;;;;13.82;5.95;;;1.50;99.90;;;;;;5132923;27;20094;-88
2021/12/07 06:23:36;;;;;;;14.00;5.18;;;1.50;99.90;;;;;;5130775;27;20053;-87
2021/12/07 06:26:02;;;;;;;11.48;4.28;;;1.60;99.90;;;;;;5132018;27;20054;-87
2021/12/07 06:28:28;;;;;;;13.18;5.45;;;1.70;99.90;;;;;;5115972;27;20118;-88
2021/12/07 06:30:54;;;;;;;15.55;5.72;;;1.70;99.90;;;;;;5111566;27;20596;-88
2021/12/07 06:33:22;;;;;;;15.25;6.20;;;1.70;99.90;;;;;;5132368;27;20127;-86
2021/12/07 06:35:49;;;;;;;14.20;6.38;;;1.70;99.90;;;;;;5130977;27;20045;-87
2021/12/07 06:38:17;;;;;;;11.60;5.32;;;1.70;99.90;;;;;;5132486;27;20050;-86
2021/12/07 06:40:44;;;;;;;12.35;5.72;;;1.70;99.90;;;;;;5131021;27;20387;-87
2021/12/07 06:43:10;;;;;;;13.57;4.88;;;1.70;99.90;;;;;;5132309;27;20126;-87
2021/12/07 06:45:36;;;;;;;13.05;5.13;;;1.70;99.90;;;;;;5114779;27;20084;-87
2021/12/07 06:48:02;;;;;;;11.43;4.68;;;1.70;99.90;;;;;;5132395;27;20031;-87
2021/12/07 06:50:28;;;;;;;12.23;5.47;;;1.70;99.90;;;;;;5132757;27;20042;-87
2021/12/07 06:52:54;;;;;;;12.38;4.78;;;1.70;99.90;;;;;;5114808;27;20113;-87
2021/12/07 06:55:20;;;;;;;14.95;5.43;;;1.70;99.90;;;;;;5132022;27;20464;-87
2021/12/07 06:57:46;;;;;;;12.30;5.85;;;1.70;99.90;;;;;;5114236;27;20035;-87
2021/12/07 07:00:13;;;;;;;14.48;6.10;;;1.70;99.90;;;;;;5131284;27;20541;-87
2021/12/07 07:02:39;;;;;;;16.17;6.28;;;1.60;99.90;;;;;;5124485;27;20125;-88
2021/12/07 07:05:05;;;;;;;11.65;5.43;;;1.60;99.90;;;;;;5126661;27;20177;-87
2021/12/07 07:07:33;;;;;;;11.25;4.85;;;1.50;99.90;;;;;;5133580;27;20049;-88
2021/12/07 07:09:58;;;;;;;13.32;4.45;;;1.60;99.90;;;;;;5128189;27;20106;-87
2021/12/07 07:12:24;;;;;;;14.65;5.50;;;1.60;99.90;;;;;;5136523;27;20034;-88
2021/12/07 07:14:50;;;;;;;15.60;6.28;;;1.50;99.90;;;;;;5131398;27;20046;-87
2021/12/07 07:17:16;;;;;;;9.85;4.43;;;1.50;99.90;;;;;;5132525;27;20034;-86
2021/12/07 07:19:42;;;;;;;14.95;5.65;;;1.50;99.90;;;;;;5131013;27;21213;-88
2021/12/07 07:22:07;;;;;;;13.25;5.63;;;1.40;99.90;;;;;;5131410;27;20045;-87
2021/12/07 07:24:35;;;;;;;12.13;5.18;;;1.40;99.90;;;;;;5131858;27;20082;-87
2021/12/07 07:27:02;;;;;;;17.27;5.88;;;1.40;99.90;;;;;;5132092;27;20051;-88
2021/12/07 07:29:28;;;;;;;13.35;5.82;;;1.40;99.90;;;;;;5115804;27;20041;-88
2021/12/07 07:31:53;;;;;;;15.88;5.07;;;1.40;99.90;;;;;;5122964;28;20142;-87
2021/12/07 07:34:19;;;;;;;14.63;5.55;;;1.40;99.90;;;;;;5103337;27;20089;-88
2021/12/07 07:36:45;;;;;;;12.98;5.10;;;1.30;99.90;;;;;;5114268;27;20039;-88
2021/12/07 07:39:11;;;;;;;12.18;5.05;;;1.30;99.90;;;;;;5131302;27;20042;-87
2021/12/07 07:41:37;;;;;;;13.88;5.45;;;1.30;99.90;;;;;;5126766;27;20043;-88
2021/12/07 07:44:04;;;;;;;17.52;5.25;;;1.30;99.90;;;;;;5114256;27;20403;-88
2021/12/07 07:46:30;;;;;;;18.45;5.50;;;1.30;99.90;;;;;;5132301;27;20422;-88
2021/12/07 07:48:56;;;;;;;10.98;4.88;;;1.40;99.90;;;;;;5130333;27;20039;-88
2021/12/07 07:51:21;;;;;;;15.10;5.72;;;1.40;99.90;;;;;;5131713;27;20031;-88
2021/12/07 07:53:48;;;;;;;14.05;5.13;;;1.40;99.90;;;;;;5130347;27;20403;-88
2021/12/07 07:56:14;;;;;;;15.27;5.18;;;1.50;99.90;;;;;;5128653;27;20078;-88
2021/12/07 07:58:39;;;;;;;13.85;5.10;;;1.60;99.90;;;;;;5122049;27;20537;-89
2021/12/07 08:01:05;;;;;;;12.35;5.07;;;1.60;99.90;;;;;;5115057;27;20497;-90
2021/12/07 08:03:31;;;;;;;13.82;4.75;;;1.60;99.90;;;;;;5110324;27;20456;-89
2021/12/07 08:05:56;;;;;;;16.58;5.22;;;1.60;99.90;;;;;;5107392;27;20043;-88
2021/12/07 08:08:22;;;;;;;9.95;4.47;;;1.60;99.90;;;;;;5127146;27;20497;-89
2021/12/07 08:10:49;;;;;;;13.13;5.07;;;1.60;99.90;;;;;;5129240;27;20479;-91
2021/12/07 08:13:15;;;;;;;13.30;5.07;;;1.50;99.90;;;;;;5127747;27;20043;-90
2021/12/07 08:15:43;;;;;;;12.75;4.90;;;1.50;99.90;;;;;;5110702;27;20046;-90
2021/12/07 08:18:10;;;;;;;12.75;5.78;;;1.50;99.90;;;;;;5124273;27;20137;-90
2021/12/07 08:20:37;;;;;;;13.75;4.88;;;1.50;99.90;;;;;;5096482;27;20069;-92
2021/12/07 08:23:04;;;;;;;12.80;6.28;;;1.50;99.90;;;;;;5103551;27;20399;-92
2021/12/07 08:25:37;;;;;;;12.43;5.05;;;1.50;99.90;;;;;;5120433;27;20047;-93
2021/12/07 08:28:04;;;;;;;15.90;5.72;;;1.50;99.90;;;;;;5104833;27;20036;-91
2021/12/07 08:30:29;;;;;;;10.32;4.07;;;1.50;99.90;;;;;;5113682;27;20065;-91
2021/12/07 08:32:55;;;;;;;13.43;5.60;;;1.50;99.90;;;;;;5125402;27;20043;-90
2021/12/07 08:35:22;;;;;;;13.75;4.95;;;1.60;99.90;;;;;;5105901;27;20039;-91
2021/12/07 08:37:48;;;;;;;11.68;5.00;;;1.50;99.90;;;;;;5113681;27;20108;-89
2021/12/07 08:40:20;;;;;;;12.23;4.03;;;1.60;99.90;;;;;;5120991;27;20049;-90
2021/12/07 08:42:47;;;;;;;14.07;5.40;;;1.60;99.90;;;;;;5125353;27;20059;-90
2021/12/07 08:45:13;;;;;;;13.32;4.32;;;1.60;99.90;;;;;;5108058;27;20100;-91
2021/12/07 08:47:39;;;;;;;12.88;4.25;;;1.60;99.90;;;;;;5126912;27;20445;-92
2021/12/07 08:50:09;;;;;;;12.10;3.92;;;1.70;99.90;;;;;;5104579;27;20047;-91
2021/12/07 08:52:35;;;;;;;12.35;4.38;;;1.80;99.90;;;;;;5121925;27;20494;-91
2021/12/07 09:00:17;;;;;;;16.80;4.65;;;1.90;99.90;;;;;;5121976;27;20405;-92
2021/12/07 09:02:43;;;;;;;12.05;4.07;;;1.90;99.90;;;;;;5109284;27;20399;-91
2021/12/07 09:05:09;;;;;;;13.10;4.00;;;1.90;99.90;;;;;;5113903;27;20053;-92
2021/12/07 09:07:35;;;;;;;13.75;4.57;;;1.90;99.90;;;;;;5104609;27;20038;-90
2021/12/07 09:10:02;;;;;;;13.73;5.50;;;1.90;99.90;;;;;;5119534;27;20046;-89
2021/12/07 09:12:29;;;;;;;15.63;4.45;;;1.90;99.90;;;;;;5103358;27;20035;-90
2021/12/07 09:14:55;;;;;;;13.07;5.32;;;2.00;99.90;;;;;;5109960;27;20046;-90
2021/12/07 09:17:22;;;;;;;13.07;4.72;;;2.00;99.90;;;;;;5111859;27;20470;-88
2021/12/07 09:19:47;;;;;;;14.50;4.70;;;2.00;99.90;;;;;;5126579;27;20046;-90
2021/12/07 09:22:13;;;;;;;10.05;3.95;;;2.20;99.90;;;;;;5100407;27;20497;-90
2021/12/07 09:24:39;;;;;;;13.15;4.50;;;2.20;99.90;;;;;;5109579;27;20054;-90
2021/12/07 09:27:05;;;;;;;10.82;4.53;;;2.30;99.90;;;;;;5112501;27;20491;-91
2021/12/07 09:29:31;;;;;;;12.38;4.22;;;2.30;99.90;;;;;;5128032;27;20114;-89
2021/12/07 09:31:57;;;;;;;12.60;4.05;;;2.40;99.90;;;;;;5111520;27;20043;-90
2021/12/07 09:34:22;;;;;;;13.82;5.32;;;2.40;99.90;;;;;;5126158;27;20037;-91
2021/12/07 09:36:48;;;;;;;15.20;5.28;;;2.50;99.90;;;;;;5108229;27;20042;-93
2021/12/07 09:39:16;;;;;;;12.77;5.28;;;2.50;99.90;;;;;;5111842;27;20043;-91
2021/12/07 09:41:42;;;;;;;12.98;4.93;;;2.50;99.90;;;;;;5125241;27;20039;-90
2021/12/07 09:44:08;;;;;;;13.02;4.38;;;2.40;99.90;;;;;;5106425;27;20050;-91
2021/12/07 09:46:35;;;;;;;10.18;3.15;;;2.50;99.90;;;;;;5115005;27;20094;-90
2021/12/07 09:49:02;;;;;;;9.80;3.60;;;2.50;99.90;;;;;;5132370;27;20046;-88
2021/12/07 09:51:28;;;;;;;12.38;4.15;;;2.50;99.90;;;;;;5109462;27;20423;-88
2021/12/07 09:53:56;;;;;;;15.05;4.80;;;2.50;99.90;;;;;;5118250;27;20327;-88
2021/12/07 09:56:23;;;;;;;13.55;4.28;;;2.60;99.90;;;;;;5099275;27;20391;-89
2021/12/07 09:58:52;;;;;;;10.35;3.30;;;2.70;99.90;;;;;;5108382;27;20047;-89
2021/12/07 10:01:19;;;;;;;13.10;4.70;;;2.70;99.90;;;;;;5109211;27;20069;-88
2021/12/07 10:03:45;;;;;;;10.98;3.15;;;2.80;99.90;;;;;;5119225;27;20057;-86
2021/12/07 10:06:11;;;;;;;14.90;4.18;;;2.80;99.90;;;;;;5109258;27;20047;-87
2021/12/07 10:08:38;;;;;;;14.20;4.13;;;2.90;99.90;;;;;;5126799;27;20442;-87
2021/12/07 10:11:09;;;;;;;24.83;13.63;;;2.90;99.90;;;;;;5126849;27;20046;-87
2021/12/07 10:13:36;;;;;;;10.35;4.60;;;3.10;99.90;;;;;;5121403;27;20075;-89
2021/12/07 10:16:05;;;;;;;9.38;3.33;;;3.20;99.90;;;;;;5100744;27;20043;-89
2021/12/07 10:18:36;;;;;;;11.35;4.55;;;3.20;99.90;;;;;;5118544;27;20035;-89
2021/12/07 10:21:25;;;;;;;8.40;3.40;;;3.20;99.90;;;;;;5122074;27;20444;-88
2021/12/07 10:24:01;;;;;;;13.52;4.55;;;3.30;99.90;;;;;;5122810;27;20111;-87
2021/12/07 10:26:31;;;;;;;13.38;4.15;;;3.30;99.90;;;;;;5110574;27;20063;-86
2021/12/07 10:28:58;;;;;;;9.20;3.28;;;3.20;99.90;;;;;;5121155;27;20039;-87
2021/12/07 10:31:28;;;;;;;13.38;4.70;;;3.30;99.90;;;;;;5140488;27;20045;-88
2021/12/07 10:33:59;;;;;;;12.18;4.07;;;3.30;99.90;;;;;;5105336;27;20050;-87
2021/12/07 10:36:34;;;;;;;11.30;3.17;;;3.30;99.90;;;;;;5109964;27;20050;-86
2021/12/07 10:39:19;;;;;;;9.80;3.70;;;3.30;99.90;;;;;;5092216;27;20046;-86
2021/12/07 10:41:50;;;;;;;12.27;3.72;;;3.40;99.90;;;;;;5109978;27;20039;-87
2021/12/07 10:44:18;;;;;;;14.95;4.85;;;3.50;99.90;;;;;;5125576;27;20112;-88
2021/12/07 10:47:00;;;;;;;9.93;3.30;;;3.50;99.90;;;;;;5111809;27;20042;-86
2021/12/07 10:49:35;;;;;;;;;;;3.60;99.90;;;;;;5140205;27;20115;-86
2021/12/07 10:52:24;;;;;;;10.27;3.40;;;3.70;99.90;;;;;;5101833;27;19975;-86
2021/12/07 10:55:15;;;;;;;10.20;3.42;;;3.80;99.90;;;;;;5125268;27;20043;-86
2021/12/07 10:57:45;;;;;;;11.43;3.47;;;3.80;99.90;;;;;;5123657;27;20034;-85
2021/12/07 11:00:15;;;;;;;11.07;3.20;;;3.90;99.90;;;;;;5124553;27;20129;-86
2021/12/07 11:02:44;;;;;;;6.55;2.72;;;3.90;99.90;;;;;;5106603;27;20035;-86
2021/12/07 11:05:15;;;;;;;15.38;4.35;;;3.90;99.90;;;;;;5106636;27;20035;-86
2021/12/07 11:07:41;;;;;;;12.05;3.75;;;4.00;99.90;;;;;;5120294;27;20475;-86
2021/12/07 11:10:17;;;;;;;19.85;9.88;;;4.00;99.90;;;;;;5125861;27;20038;-85
2021/12/07 11:13:35;;;;;;;10.68;3.80;;;4.10;99.90;;;;;;5116731;27;20080;-87
2021/12/07 11:15:51;;;;;;;13.55;3.90;;;4.20;99.90;;;;;;5114014;27;20047;-87
2021/12/07 11:18:21;;;;;;;13.07;4.10;;;4.20;99.90;;;;;;5126535;27;20057;-87
2021/12/07 11:20:47;;;;;;;8.93;3.57;;;4.30;99.90;;;;;;5100811;27;20088;-87
2021/12/07 11:23:17;;;;;;;12.73;3.88;;;4.30;99.90;;;;;;5100101;27;20035;-87
2021/12/07 11:31:11;;;;;;;13.20;3.63;;;4.40;99.90;;;;;;5106369;27;20082;-87
2021/12/07 11:33:37;;;;;;;9.48;3.78;;;4.50;99.90;;;;;;5105385;28;20043;-86
2021/12/07 11:36:15;;;;;;;10.90;4.13;;;4.50;99.90;;;;;;5110481;28;20061;-86
2021/12/07 11:38:40;;;;;;;18.48;9.75;;;4.60;99.90;;;;;;5087104;28;20088;-87
2021/12/07 11:41:27;;;;;;;14.73;5.00;;;4.70;99.90;;;;;;5088444;28;20048;-87
2021/12/07 11:43:56;;;;;;;12.15;3.90;;;4.80;99.90;;;;;;5090757;28;20380;-87
2021/12/07 11:46:23;;;;;;;17.20;9.48;;;4.80;99.90;;;;;;5111267;28;20050;-86
2021/12/07 11:49:06;;;;;;;11.40;4.20;;;4.80;99.90;;;;;;5091245;28;20028;-86
2021/12/07 11:51:32;;;;;;;12.35;3.75;;;4.90;99.90;;;;;;5111305;28;20071;-89
2021/12/07 11:53:57;;;;;;;12.07;3.70;;;4.90;99.90;;;;;;5092114;28;20117;-88
2021/12/07 11:56:23;;;;;;;20.48;9.70;;;5.00;99.90;;;;;;5106843;28;20047;-87
2021/12/07 11:58:49;;;;;;;10.75;3.40;;;5.10;99.90;;;;;;5110009;28;20043;-88
2021/12/07 12:01:15;;;;;;;14.20;4.05;;;5.10;99.90;;;;;;5092160;28;20403;-86
2021/12/07 12:03:40;;;;;;;12.10;3.47;;;5.10;99.90;;;;;;5099602;27;20490;-87
2021/12/07 12:06:07;;;;;;;13.73;3.97;;;5.20;99.90;;;;;;5092298;27;20054;-87
2021/12/07 12:08:33;;;;;;;13.50;4.00;;;5.20;99.90;;;;;;5109276;27;20039;-88
2021/12/07 12:11:09;;;;;;;17.38;9.63;;;5.30;99.90;;;;;;5112095;27;20095;-86
2021/12/07 12:14:12;;;;;;;16.90;10.10;;;5.30;99.90;;;;;;5090107;27;20040;-86
2021/12/07 12:17:01;;;;;;;11.68;4.53;;;5.40;99.90;;;;;;5091136;28;20084;-85
2021/12/07 12:19:49;;;;;;;10.45;4.15;;;5.40;99.90;;;;;;5104517;27;20040;-87
2021/12/07 12:22:37;;;;;;;15.00;4.88;;;5.40;99.90;;;;;;5108180;28;20039;-87
2021/12/07 12:25:09;;;;;;;19.05;9.80;;;5.40;99.90;;;;;;5106561;27;20081;-86
2021/12/07 12:27:36;;;;;;;8.93;3.45;;;5.40;99.90;;;;;;5105686;28;20099;-87
2021/12/07 12:30:22;;;;;;;18.35;9.25;;;5.50;99.90;;;;;;5090101;28;20369;-87
2021/12/07 12:32:54;;;;;;;11.98;4.13;;;5.50;99.90;;;;;;5089969;28;20118;-85
2021/12/07 12:35:27;;;;;;;10.68;3.75;;;5.50;99.90;;;;;;5110066;27;20082;-85
2021/12/07 12:37:53;;;;;;;15.25;8.90;;;5.40;99.90;;;;;;5110692;27;20235;-86
2021/12/07 12:40:39;;;;;;;16.10;10.25;;;5.50;99.90;;;;;;5107157;27;20043;-87
2021/12/07 12:43:04;;;;;;;11.35;4.07;;;5.60;99.90;;;;;;5089117;28;20092;-86
2021/12/07 12:45:35;;;;;;;13.35;3.67;;;5.60;99.90;;;;;;5089530;28;20044;-86
2021/12/07 12:48:07;;;;;;;8.73;3.47;;;5.50;99.90;;;;;;5105767;27;20138;-86
2021/12/07 12:50:51;;;;;;;11.95;3.60;;;5.50;99.90;;;;;;5097417;27;20333;-86
2021/12/07 12:53:20;;;;;;;12.35;4.40;;;5.40;99.90;;;;;;5102956;27;20093;-87
2021/12/07 12:55:57;;;;;;;10.43;3.88;;;5.40;99.90;;;;;;5089082;28;20046;-87
2021/12/07 12:58:30;;;;;;;12.05;4.05;;;5.40;99.90;;;;;;5080141;28;20407;-88
2021/12/07 13:01:18;;;;;;;18.00;8.88;;;5.40;99.90;;;;;;5083754;27;20058;-87
2021/12/07 13:03:46;;;;;;;9.57;3.88;;;5.50;99.90;;;;;;5088905;28;20036;-88
2021/12/07 13:06:19;;;;;;;11.52;4.32;;;5.50;99.90;;;;;;5113915;27;20035;-87
2021/12/07 13:09:00;;;;;;;18.25;8.82;;;5.50;99.90;;;;;;5090315;28;20074;-86
2021/12/07 13:12:03;;;;;;;14.80;4.05;;;5.60;99.90;;;;;;5112515;27;20047;-87
2021/12/07 13:14:39;;;;;;;16.33;9.30;;;5.50;99.90;;;;;;5105621;27;20082;-87
2021/12/07 13:17:14;;;;;;;9.48;3.53;;;5.60;99.90;;;;;;5092934;27;20044;-88
2021/12/07 13:20:10;;;;;;;11.13;4.30;;;5.60;99.90;;;;;;5092038;27;20096;-87
2021/12/07 13:22:56;;;;;;;9.80;4.13;;;5.50;99.90;;;;;;5094119;27;20414;-87
2021/12/07 13:25:26;;;;;;;16.90;4.85;;;5.50;99.90;;;;;;5101179;27;20448;-88
2021/12/07 13:28:11;;;;;;;18.25;10.25;;;5.50;99.90;;;;;;5138518;27;20385;-90
2021/12/07 13:30:46;;;;;;;12.00;4.28;;;5.60;99.90;;;;;;5094273;28;20051;-87
2021/12/07 13:33:21;;;;;;;21.05;10.85;;;5.60;99.90;;;;;;5120861;27;20063;-88
2021/12/07 13:35:49;;;;;;;11.27;4.68;;;5.60;99.90;;;;;;5113280;27;20039;-87
2021/12/07 13:38:23;;;;;;;19.40;10.13;;;5.50;99.90;;;;;;5115479;27;20051;-88
2021/12/07 13:40:53;;;;;;;13.32;5.03;;;5.60;99.90;;;;;;5094241;28;20042;-87
2021/12/07 13:43:34;;;;;;;13.18;4.25;;;5.50;99.90;;;;;;5114789;27;20071;-88
2021/12/07 13:46:07;;;;;;;;;;;5.40;99.90;;;;;;5104198;27;20050;-87
2021/12/07 13:48:33;;;;;;;9.85;4.32;;;5.40;99.90;;;;;;5122969;27;19930;-86
2021/12/07 13:50:59;;;;;;;19.67;11.80;;;5.40;99.90;;;;;;5117739;27;20435;-88
2021/12/07 13:53:26;;;;;;;11.50;4.65;;;5.30;99.90;;;;;;5098654;27;20058;-86
2021/12/07 13:55:52;;;;;;;21.95;12.48;;;5.30;99.90;;;;;;5106966;27;20741;-87
2021/12/07 13:58:18;;;;;;;19.73;12.57;;;5.30;99.90;;;;;;5102553;27;20104;-87
2021/12/07 14:00:43;;;;;;;12.95;5.38;;;5.30;99.90;;;;;;5113282;27;20040;-87
2021/12/07 14:03:12;;;;;;;14.18;5.03;;;5.20;99.90;;;;;;5118321;27;20373;-86
2021/12/07 14:05:43;;;;;;;22.60;13.30;;;5.10;99.90;;;;;;5097625;27;20046;-88
2021/12/07 14:08:12;;;;;;;;;;;5.20;99.90;;;;;;5099065;28;20032;-86
2021/12/07 14:10:45;;;;;;;23.83;13.48;;;5.10;99.90;;;;;;5100863;27;20014;-89
2021/12/07 14:13:11;;;;;;;12.50;4.63;;;5.10;99.90;;;;;;5118975;27;20365;-86
2021/12/07 14:15:39;;;;;;;15.15;4.97;;;5.00;99.90;;;;;;5101337;27;20122;-85
2021/12/07 14:18:14;;;;;;;14.55;5.65;;;4.90;99.90;;;;;;5094756;27;20122;-86
2021/12/07 14:20:44;;;;;;;21.92;13.85;;;4.90;99.90;;;;;;5106988;27;20047;-85
2021/12/07 14:23:23;;;;;;;24.05;14.88;;;4.90;99.90;;;;;;5122943;27;20047;-86
2021/12/07 14:26:02;;;;;;;13.30;5.63;;;4.90;99.90;;;;;;5105260;27;20063;-85
2021/12/07 14:28:39;;;;;;;13.27;6.40;;;4.80;99.90;;;;;;5095689;28;20396;-85
2021/12/07 14:31:18;;;;;;;21.17;7.00;;;4.70;99.90;;;;;;5093021;28;20480;-85
2021/12/07 14:33:51;;;;;;;25.33;16.50;;;4.70;99.90;;;;;;5086932;28;20485;-84
2021/12/07 14:36:29;;;;;;;19.05;6.35;;;4.70;99.90;;;;;;5073445;28;20436;-85
2021/12/07 14:39:00;;;;;;;16.30;6.85;;;4.60;99.90;;;;;;5087921;28;20047;-86
2021/12/07 14:41:27;;;;;;;15.93;6.32;;;4.60;99.90;;;;;;5074256;28;20052;-85